createdAt,value
2023-05-07T00:02:24.556Z,92.02
2023-05-07T00:04:53.019Z,92.42
2023-05-07T00:07:20.712Z,92.05
2023-05-07T00:09:48.294Z,92.29
2023-05-07T00:12:15.838Z,91.84
2023-05-07T00:14:44.712Z,92.34
2023-05-07T00:17:12.233Z,92.63
2023-05-07T00:19:39.781Z,93.02
2023-05-07T00:22:07.346Z,92.37
2023-05-07T00:24:35.402Z,92.28
2023-05-07T00:27:03.007Z,92.16
2023-05-07T00:29:30.594Z,91.94
2023-05-07T00:31:59.559Z,91.54
2023-05-07T00:34:27.253Z,91.84
2023-05-07T00:36:54.772Z,92.12
2023-05-07T00:39:22.392Z,92.13
2023-05-07T00:41:50.024Z,92.38
2023-05-07T00:44:17.609Z,92.75
2023-05-07T00:46:45.803Z,92.75
2023-05-07T00:49:14.789Z,92.70
2023-05-07T00:51:42.478Z,92.81
2023-05-07T00:54:10.478Z,92.73
2023-05-07T00:56:40.038Z,92.78
2023-05-07T00:59:08.264Z,92.96
2023-05-07T01:01:35.941Z,92.87
2023-05-07T01:04:03.569Z,93.26
2023-05-07T01:06:35.004Z,93.88
2023-05-07T01:09:05.491Z,93.80
2023-05-07T01:11:33.381Z,93.91
2023-05-07T01:14:02.059Z,94.31
2023-05-07T01:16:29.629Z,94.05
2023-05-07T01:18:57.311Z,93.73
2023-05-07T01:21:27.911Z,94.02
2023-05-07T01:24:01.008Z,94.32
2023-05-07T01:26:29.580Z,94.11
2023-05-07T01:28:57.274Z,93.37
2023-05-07T01:31:26.237Z,93.62
2023-05-07T01:33:54.678Z,93.79
2023-05-07T01:36:26.952Z,93.25
2023-05-07T01:38:55.011Z,93.81
2023-05-07T01:41:24.354Z,93.40
2023-05-07T01:43:52.897Z,93.50
2023-05-07T01:46:20.837Z,93.30
2023-05-07T01:48:49.300Z,93.39
2023-05-07T01:51:16.806Z,93.63
2023-05-07T01:53:44.828Z,93.27
2023-05-07T01:56:12.433Z,93.86
2023-05-07T01:58:43.339Z,93.82
2023-05-07T02:13:36.832Z,94.26
2023-05-07T02:16:06.907Z,93.72
2023-05-07T02:18:34.914Z,93.75
2023-05-07T02:21:02.594Z,93.64
2023-05-07T02:23:30.327Z,93.38
2023-05-07T02:25:58.420Z,93.25
2023-05-07T02:28:26.283Z,93.37
2023-05-07T02:31:06.289Z,93.47
2023-05-07T02:33:35.797Z,93.85
2023-05-07T02:36:14.273Z,93.74
2023-05-07T02:38:51.320Z,93.15
2023-05-07T02:41:19.072Z,93.42
2023-05-07T02:43:46.761Z,93.51
2023-05-07T02:46:16.720Z,94.09
2023-05-07T02:48:48.035Z,94.62
2023-05-07T02:51:15.940Z,94.35
2023-05-07T02:53:44.330Z,95.07
2023-05-07T02:56:11.879Z,95.39
2023-05-07T02:58:40.262Z,95.43
2023-05-07T03:01:08.123Z,95.18
2023-05-07T03:03:42.154Z,95.37
2023-05-07T03:06:09.874Z,95.67
2023-05-07T03:08:37.760Z,95.24
2023-05-07T03:11:05.931Z,95.22
2023-05-07T03:13:33.601Z,96.01
2023-05-07T03:16:01.344Z,95.35
2023-05-07T03:18:29.087Z,95.81
2023-05-07T03:20:59.002Z,95.52
2023-05-07T03:23:26.572Z,95.77
2023-05-07T03:25:54.111Z,95.78
2023-05-07T03:28:22.591Z,95.55
2023-05-07T03:30:55.344Z,95.91
2023-05-07T03:33:23.629Z,95.50
2023-05-07T03:35:51.542Z,95.42
2023-05-07T03:38:25.223Z,95.92
2023-05-07T03:40:53.001Z,96.37
2023-05-07T03:43:20.842Z,96.50
2023-05-07T03:45:53.354Z,96.62
2023-05-07T03:48:25.716Z,96.20
2023-05-07T03:50:56.544Z,96.90
2023-05-07T03:53:25.868Z,97.27
2023-05-07T03:55:53.511Z,97.21
2023-05-07T03:58:22.249Z,97.70
2023-05-07T04:00:50.852Z,97.92
2023-05-07T04:03:28.203Z,97.55
2023-05-07T04:05:58.967Z,97.57
2023-05-07T04:08:28.144Z,97.70
2023-05-07T04:10:57.097Z,97.10
2023-05-07T04:13:26.520Z,96.99
2023-05-07T04:15:54.484Z,97.35
2023-05-07T04:18:22.306Z,97.16
2023-05-07T04:20:51.290Z,97.12
2023-05-07T04:23:18.985Z,96.64
2023-05-07T04:25:48.132Z,97.18
2023-05-07T04:28:34.271Z,97.41
2023-05-07T04:31:01.905Z,96.82
2023-05-07T04:33:31.768Z,96.89
2023-05-07T04:36:03.648Z,96.75
2023-05-07T04:38:32.354Z,96.16
2023-05-07T04:41:07.082Z,96.98
2023-05-07T04:43:38.839Z,96.44
2023-05-07T04:46:06.884Z,96.24
2023-05-07T04:48:35.070Z,95.85
2023-05-07T04:51:04.073Z,95.95
2023-05-07T04:53:31.654Z,95.54
2023-05-07T04:55:59.749Z,95.54
2023-05-07T04:58:34.996Z,95.23
2023-05-07T05:01:03.033Z,95.63
2023-05-07T05:03:32.120Z,95.05
2023-05-07T05:06:00.439Z,95.25
2023-05-07T05:08:31.929Z,95.76
2023-05-07T05:10:59.537Z,94.97
2023-05-07T05:13:27.201Z,95.05
2023-05-07T05:23:51.852Z,94.40
2023-05-07T05:26:23.069Z,93.98
2023-05-07T05:28:50.726Z,93.66
2023-05-07T05:31:21.365Z,93.55
2023-05-07T05:33:51.055Z,93.41
2023-05-07T05:36:18.746Z,92.32
2023-05-07T05:38:47.875Z,92.27
2023-05-07T05:41:16.910Z,91.58
2023-05-07T05:43:44.560Z,90.89
2023-05-07T05:46:13.198Z,90.87
2023-05-07T05:48:40.829Z,90.22
2023-05-07T05:51:09.081Z,89.74
2023-05-07T05:53:36.725Z,89.67
2023-05-07T05:56:04.622Z,88.73
2023-05-07T05:58:35.041Z,88.15
2023-05-07T06:01:06.581Z,87.60
2023-05-07T06:03:36.895Z,87.23
2023-05-07T06:06:08.698Z,86.57
2023-05-07T06:08:36.321Z,87.17
2023-05-07T06:11:05.224Z,86.74
2023-05-07T06:13:37.490Z,86.79
2023-05-07T06:16:05.722Z,86.18
2023-05-07T06:18:33.505Z,85.70
2023-05-07T06:21:01.230Z,85.00
2023-05-07T06:23:34.803Z,85.69
2023-05-07T06:26:03.209Z,86.75
2023-05-07T06:28:37.740Z,86.10
2023-05-07T06:31:13.107Z,85.31
2023-05-07T06:33:41.497Z,84.21
2023-05-07T06:36:09.296Z,84.60
2023-05-07T06:38:37.521Z,83.11
2023-05-07T06:41:05.178Z,82.46
2023-05-07T06:43:32.734Z,82.58
2023-05-07T06:46:27.119Z,82.48
2023-05-07T06:48:54.797Z,81.66
2023-05-07T06:51:22.394Z,80.68
2023-05-07T06:53:50.527Z,80.67
2023-05-07T06:56:18.049Z,79.54
2023-05-07T06:58:45.611Z,79.21
2023-05-07T07:01:13.545Z,76.41
2023-05-07T07:03:42.780Z,76.24
2023-05-07T07:06:10.417Z,75.52
2023-05-07T07:08:39.648Z,75.15
2023-05-07T07:11:08.319Z,74.72
2023-05-07T07:13:36.518Z,73.72
2023-05-07T07:16:04.926Z,71.49
2023-05-07T07:18:33.351Z,71.34
2023-05-07T07:21:02.250Z,71.05
2023-05-07T07:23:30.067Z,70.18
2023-05-07T07:25:57.890Z,69.52
2023-05-07T07:28:26.167Z,69.41
2023-05-07T07:30:54.282Z,68.82
2023-05-07T07:33:22.288Z,66.88
2023-05-07T07:35:50.168Z,67.31
2023-05-07T07:38:19.174Z,67.75
2023-05-07T07:40:47.254Z,67.19
2023-05-07T07:43:14.881Z,67.08
2023-05-07T07:45:43.289Z,65.74
2023-05-07T07:48:10.909Z,65.52
2023-05-07T07:50:45.078Z,64.20
2023-05-07T07:53:15.564Z,63.93
2023-05-07T07:55:44.985Z,63.86
2023-05-07T07:58:15.600Z,63.84
2023-05-07T08:00:44.178Z,64.98
2023-05-07T08:03:12.933Z,63.86
2023-05-07T08:05:44.936Z,63.53
2023-05-07T08:08:12.568Z,63.63
2023-05-07T08:10:41.497Z,63.51
2023-05-07T08:13:18.325Z,63.17
2023-05-07T08:15:46.550Z,64.06
2023-05-07T08:18:15.975Z,62.41
2023-05-07T08:20:44.464Z,63.13
2023-05-07T08:23:16.518Z,66.20
2023-05-07T08:25:45.910Z,67.10
2023-05-07T08:28:14.167Z,68.24
2023-05-07T08:30:43.613Z,68.99
2023-05-07T08:33:12.131Z,69.48
2023-05-07T08:35:39.997Z,69.48
2023-05-07T08:38:08.817Z,69.12
2023-05-07T08:40:39.835Z,67.69
2023-05-07T08:43:14.715Z,68.10
2023-05-07T08:45:47.600Z,69.16
2023-05-07T08:48:18.409Z,66.75
2023-05-07T08:50:53.184Z,67.50
2023-05-07T08:53:22.678Z,65.65
2023-05-07T08:55:51.245Z,66.18
2023-05-07T08:58:19.299Z,65.52
2023-05-07T09:00:49.240Z,65.57
2023-05-07T09:03:17.703Z,67.06
2023-05-07T09:05:49.156Z,63.86
2023-05-07T09:08:18.683Z,63.90
2023-05-07T09:10:50.150Z,66.11
2023-05-07T09:13:19.171Z,64.09
2023-05-07T09:15:48.533Z,66.08
2023-05-07T09:18:17.174Z,63.06
2023-05-07T09:20:46.775Z,63.65
2023-05-07T09:23:16.059Z,65.20
2023-05-07T09:25:44.881Z,62.83
2023-05-07T09:28:25.596Z,62.60
2023-05-07T09:30:54.587Z,63.97
2023-05-07T09:33:22.150Z,64.28
2023-05-07T09:35:53.726Z,65.31
2023-05-07T09:38:23.453Z,64.45
2023-05-07T09:41:04.391Z,64.13
2023-05-07T09:43:36.072Z,64.03
2023-05-07T09:46:09.318Z,62.58
2023-05-07T09:48:40.967Z,63.50
2023-05-07T09:51:20.303Z,61.80
2023-05-07T09:53:48.287Z,61.96
2023-05-07T09:56:17.225Z,60.98
2023-05-07T09:58:45.642Z,60.30
2023-05-07T10:01:15.503Z,59.67
2023-05-07T10:03:45.715Z,59.58
2023-05-07T10:06:14.966Z,57.78
2023-05-07T10:08:44.743Z,57.96
2023-05-07T10:11:12.537Z,57.82
2023-05-07T10:13:40.304Z,59.78
2023-05-07T10:16:10.812Z,58.78
2023-05-07T10:18:45.844Z,57.43
2023-05-07T10:21:19.887Z,56.66
2023-05-07T10:23:52.114Z,57.04
2023-05-07T10:26:24.175Z,56.65
2023-05-07T10:28:56.571Z,55.98
2023-05-07T10:31:44.970Z,55.03
2023-05-07T10:34:18.734Z,55.27
2023-05-07T10:36:46.828Z,56.47
2023-05-07T10:39:15.270Z,57.86
2023-05-07T10:41:42.982Z,56.30
2023-05-07T10:44:12.332Z,55.33
2023-05-07T10:46:40.574Z,55.65
2023-05-07T10:49:15.951Z,54.25
2023-05-07T10:52:16.696Z,53.33
2023-05-07T10:55:30.873Z,52.13
2023-05-07T10:58:31.953Z,51.21
2023-05-07T11:01:11.143Z,52.27
2023-05-07T11:04:18.546Z,49.21
2023-05-07T11:07:27.050Z,50.54
2023-05-07T11:10:06.239Z,49.39
2023-05-07T11:13:09.818Z,48.91
2023-05-07T11:15:47.563Z,49.33
2023-05-07T11:18:24.659Z,45.75
2023-05-07T11:20:57.225Z,45.64
2023-05-07T11:24:00.595Z,46.47
2023-05-07T11:26:45.666Z,46.44
2023-05-07T11:29:14.884Z,46.52
2023-05-07T11:31:44.461Z,45.15
2023-05-07T11:34:14.206Z,46.10
2023-05-07T11:36:47.451Z,44.94
2023-05-07T11:39:33.818Z,43.32
2023-05-07T11:42:06.373Z,43.33
2023-05-07T11:44:47.082Z,44.66
2023-05-07T11:47:19.734Z,44.02
2023-05-07T11:49:48.868Z,43.00
2023-05-07T11:52:18.306Z,43.79
2023-05-07T11:54:51.058Z,43.29
2023-05-07T11:57:18.928Z,43.04
2023-05-07T11:59:47.999Z,41.88
2023-05-07T12:02:16.582Z,41.63
2023-05-07T12:04:44.225Z,42.22
2023-05-07T12:07:14.468Z,41.53
2023-05-07T12:09:43.940Z,40.90
2023-05-07T12:12:11.706Z,40.14
2023-05-07T12:14:39.910Z,39.89
2023-05-07T12:17:08.974Z,40.57
2023-05-07T12:19:37.022Z,41.94
2023-05-07T12:22:05.712Z,40.43
2023-05-07T12:24:45.702Z,37.94
2023-05-07T12:27:13.408Z,39.38
2023-05-07T12:29:44.559Z,41.66
2023-05-07T12:32:16.477Z,39.34
2023-05-07T12:34:45.254Z,38.37
2023-05-07T12:45:28.582Z,38.95
2023-05-07T12:47:56.223Z,38.88
2023-05-07T12:50:24.789Z,39.40
2023-05-07T12:52:52.445Z,41.57
2023-05-07T12:55:20.394Z,40.90
2023-05-07T12:57:51.339Z,40.60
2023-05-07T13:00:19.112Z,40.09
2023-05-07T13:02:48.156Z,38.61
2023-05-07T13:05:15.836Z,38.76
2023-05-07T13:07:54.632Z,38.40
2023-05-07T13:10:22.398Z,38.74
2023-05-07T13:12:49.977Z,37.76
2023-05-07T13:15:17.888Z,38.37
2023-05-07T13:17:45.977Z,37.14
2023-05-07T13:20:15.070Z,36.01
2023-05-07T13:22:42.692Z,34.31
2023-05-07T13:25:11.195Z,36.39
2023-05-07T13:27:38.962Z,35.92
2023-05-07T13:30:07.733Z,38.86
2023-05-07T13:32:35.474Z,41.18
2023-05-07T13:35:03.412Z,44.67
2023-05-07T13:37:32.346Z,44.67
2023-05-07T13:40:00.171Z,45.63
2023-05-07T13:42:27.727Z,46.85
2023-05-07T13:44:55.388Z,48.21
2023-05-07T13:47:24.664Z,48.88
2023-05-07T13:49:52.429Z,50.81
2023-05-07T13:52:19.948Z,50.85
2023-05-07T13:54:48.975Z,50.58
2023-05-07T13:57:16.513Z,50.83
2023-05-07T13:59:44.502Z,51.99
2023-05-07T14:02:12.049Z,52.14
2023-05-07T14:04:39.651Z,53.16
2023-05-07T14:07:07.207Z,53.78
2023-05-07T14:09:34.793Z,54.27
2023-05-07T14:12:03.813Z,55.00
2023-05-07T14:14:31.406Z,55.96
2023-05-07T14:16:59.213Z,56.48
2023-05-07T14:19:27.476Z,57.06
2023-05-07T14:21:55.792Z,56.36
2023-05-07T14:24:37.135Z,55.07
2023-05-07T14:27:07.591Z,54.05
2023-05-07T14:29:36.430Z,53.27
2023-05-07T14:32:04.450Z,52.43
2023-05-07T14:34:32.172Z,54.57
2023-05-07T14:37:00.337Z,54.00
2023-05-07T14:39:28.039Z,52.79
2023-05-07T14:41:56.985Z,53.53
2023-05-07T14:44:26.109Z,54.17
2023-05-07T14:46:54.174Z,55.41
2023-05-07T14:49:21.832Z,55.19
2023-05-07T14:51:49.393Z,55.93
2023-05-07T14:54:16.940Z,57.29
2023-05-07T14:56:44.515Z,57.81
2023-05-07T14:59:12.326Z,56.55
2023-05-07T15:01:46.201Z,55.92
2023-05-07T15:04:13.969Z,55.42
2023-05-07T15:06:41.576Z,54.28
2023-05-07T15:09:09.873Z,53.49
2023-05-07T15:11:37.512Z,54.29
2023-05-07T15:14:05.830Z,53.40
2023-05-07T15:16:33.685Z,54.14
2023-05-07T15:19:02.733Z,54.13
2023-05-07T15:21:31.821Z,53.52
2023-05-07T15:23:59.379Z,54.13
2023-05-07T15:26:26.946Z,53.97
2023-05-07T15:28:56.753Z,54.29
2023-05-07T15:31:24.525Z,55.36
2023-05-07T15:33:52.769Z,56.06
2023-05-07T15:36:21.767Z,56.05
2023-05-07T15:38:49.373Z,56.84
2023-05-07T15:41:16.878Z,56.75
2023-05-07T15:43:48.112Z,57.50
2023-05-07T15:46:20.127Z,57.28
2023-05-07T15:48:48.202Z,57.42
2023-05-07T15:51:15.841Z,57.32
2023-05-07T15:53:45.202Z,57.54
2023-05-07T15:56:13.008Z,57.75
2023-05-07T15:58:40.630Z,57.95
2023-05-07T16:01:08.288Z,57.92
2023-05-07T16:03:35.959Z,58.96
2023-05-07T16:06:03.703Z,59.95
2023-05-07T16:08:31.245Z,59.81
2023-05-07T16:11:00.453Z,61.10
2023-05-07T16:13:28.233Z,61.25
2023-05-07T16:15:57.563Z,60.87
2023-05-07T16:18:25.229Z,62.22
2023-05-07T16:20:53.013Z,61.18
2023-05-07T16:23:20.820Z,60.99
2023-05-07T16:25:48.399Z,61.01
2023-05-07T16:28:17.421Z,61.07
2023-05-07T16:30:45.096Z,62.31
2023-05-07T16:33:12.770Z,63.00
2023-05-07T16:35:40.339Z,64.82
2023-05-07T16:38:11.564Z,66.11
2023-05-07T16:40:40.175Z,68.84
2023-05-07T16:43:08.005Z,70.20
2023-05-07T16:45:37.020Z,70.49
2023-05-07T16:48:05.535Z,71.60
2023-05-07T16:50:33.173Z,73.18
2023-05-07T16:53:01.045Z,73.75
2023-05-07T16:55:30.700Z,74.49
2023-05-07T16:57:58.278Z,74.95
2023-05-07T17:00:31.834Z,74.62
2023-05-07T17:03:04.309Z,73.85
2023-05-07T17:05:32.275Z,73.96
2023-05-07T17:07:59.941Z,73.46
2023-05-07T17:10:27.790Z,72.91
2023-05-07T17:12:55.373Z,73.36
2023-05-07T17:15:23.210Z,74.13
2023-05-07T17:17:50.947Z,75.59
2023-05-07T17:20:19.968Z,76.01
2023-05-07T17:22:47.504Z,77.15
2023-05-07T17:25:15.228Z,78.18
2023-05-07T17:27:42.760Z,77.48
2023-05-07T17:30:11.542Z,77.80
2023-05-07T17:32:39.266Z,78.12
2023-05-07T17:35:07.831Z,78.26
2023-05-07T17:37:36.789Z,79.15
2023-05-07T17:40:05.118Z,79.22
2023-05-07T17:42:32.926Z,79.74
2023-05-07T17:45:00.523Z,79.98
2023-05-07T17:47:28.202Z,80.42
2023-05-07T17:49:55.879Z,81.09
2023-05-07T17:52:24.033Z,81.16
2023-05-07T17:54:53.013Z,81.61
2023-05-07T17:57:22.142Z,81.40
2023-05-07T17:59:49.811Z,81.89
2023-05-07T18:02:17.467Z,82.10
2023-05-07T18:04:45.487Z,82.24
2023-05-07T18:07:13.560Z,82.71
2023-05-07T18:09:41.187Z,83.40
2023-05-07T18:12:10.350Z,83.93
2023-05-07T18:14:38.149Z,84.39
2023-05-07T18:17:05.710Z,84.49
2023-05-07T18:19:33.278Z,85.83
2023-05-07T18:22:00.847Z,86.32
2023-05-07T18:24:28.425Z,86.39
2023-05-07T18:26:56.061Z,86.21
2023-05-07T18:29:25.212Z,86.60
2023-05-07T18:31:52.962Z,86.91
2023-05-07T18:34:20.606Z,88.45
2023-05-07T18:36:48.209Z,88.81
2023-05-07T18:39:15.796Z,89.33
2023-05-07T18:41:45.110Z,89.82
2023-05-07T18:44:12.776Z,90.48
2023-05-07T18:46:43.656Z,90.05
2023-05-07T18:49:11.338Z,90.25
2023-05-07T18:51:38.854Z,90.53
2023-05-07T18:54:06.592Z,90.44
2023-05-07T18:56:34.267Z,91.21
2023-05-07T18:59:01.878Z,90.52
2023-05-07T19:01:29.492Z,91.04
2023-05-07T19:03:58.489Z,91.39
2023-05-07T19:06:26.665Z,91.77
2023-05-07T19:08:54.190Z,92.13
2023-05-07T19:11:21.789Z,92.52
2023-05-07T19:13:49.320Z,92.44
2023-05-07T19:16:17.250Z,93.47
2023-05-07T19:18:45.051Z,93.72
2023-05-07T19:21:13.978Z,93.96
2023-05-07T19:23:42.471Z,93.64
2023-05-07T19:26:10.755Z,93.83
2023-05-07T19:28:39.112Z,94.09
2023-05-07T19:31:07.959Z,94.83
2023-05-07T19:33:35.683Z,94.96
2023-05-07T19:36:03.411Z,95.67
2023-05-07T19:38:32.344Z,95.80
2023-05-07T19:41:00.574Z,96.79
2023-05-07T19:43:28.171Z,96.94
2023-05-07T19:45:55.811Z,97.37
2023-05-07T19:48:23.427Z,97.18
2023-05-07T19:50:51.405Z,96.69
2023-05-07T19:53:19.017Z,97.01
2023-05-07T19:55:47.984Z,96.79
2023-05-07T19:58:16.749Z,96.88
2023-05-07T20:00:44.275Z,96.83
2023-05-07T20:03:18.003Z,96.94
2023-05-07T20:05:47.089Z,97.42
2023-05-07T20:08:14.812Z,97.17
2023-05-07T20:10:42.587Z,97.04
2023-05-07T20:13:11.755Z,97.17
2023-05-07T20:15:39.595Z,97.14
2023-05-07T20:18:07.617Z,96.86
2023-05-07T20:20:35.638Z,97.41
2023-05-07T20:23:03.656Z,97.33
2023-05-07T20:25:31.335Z,97.39
2023-05-07T20:27:59.129Z,97.74
2023-05-07T20:30:28.119Z,98.00
2023-05-07T20:32:55.987Z,98.14
2023-05-07T20:35:23.801Z,97.16
2023-05-07T20:37:51.518Z,98.16
2023-05-07T20:40:19.626Z,98.36
2023-05-07T20:42:47.290Z,99.20
2023-05-07T20:45:15.049Z,99.32
2023-05-07T20:47:44.062Z,99.54
2023-05-07T20:50:12.577Z,99.19
2023-05-07T20:52:40.641Z,99.17
2023-05-07T20:55:09.556Z,99.35
2023-05-07T20:57:37.306Z,99.33
2023-05-07T21:00:05.589Z,99.30
2023-05-07T21:02:33.243Z,99.39
2023-05-07T21:05:02.262Z,98.99
2023-05-07T21:07:30.553Z,98.91
2023-05-07T21:09:58.127Z,99.19
2023-05-07T21:12:25.850Z,99.31
2023-05-07T21:14:53.635Z,99.31
2023-05-07T21:17:21.166Z,99.56
2023-05-07T21:19:49.587Z,100.00
2023-05-07T21:22:18.651Z,100.00
2023-05-07T21:24:46.242Z,100.00
2023-05-07T21:27:14.003Z,100.00
2023-05-07T21:29:41.572Z,100.00
2023-05-07T21:32:09.155Z,100.00
2023-05-07T21:34:36.691Z,100.00
2023-05-07T21:37:04.291Z,100.00
2023-05-07T21:39:33.307Z,100.00
2023-05-07T21:42:00.875Z,100.00
2023-05-07T21:44:30.099Z,100.00
2023-05-07T21:46:57.757Z,100.00
2023-05-07T21:49:25.302Z,100.00
2023-05-07T21:51:52.881Z,100.00
2023-05-07T21:54:20.486Z,100.00
2023-05-07T21:56:50.198Z,100.00
2023-05-07T21:59:17.965Z,100.00
2023-05-07T22:01:45.789Z,100.00
2023-05-07T22:04:13.321Z,100.00
2023-05-07T22:06:40.919Z,100.00
2023-05-07T22:09:09.176Z,100.00
2023-05-07T22:11:36.677Z,100.00
2023-05-07T22:14:06.085Z,100.00
2023-05-07T22:16:33.708Z,100.00
2023-05-07T22:19:01.312Z,100.00
2023-05-07T22:21:28.934Z,100.00
2023-05-07T22:23:56.474Z,100.00
2023-05-07T22:26:24.103Z,100.00
2023-05-07T22:28:51.635Z,100.00
2023-05-07T22:31:20.617Z,100.00
2023-05-07T22:33:48.246Z,100.00
2023-05-07T22:36:15.753Z,100.00
2023-05-07T22:38:43.301Z,100.00
2023-05-07T22:41:10.823Z,100.00
2023-05-07T22:43:39.354Z,100.00
2023-05-07T22:46:07.049Z,100.00
2023-05-07T22:48:36.035Z,100.00
2023-05-07T22:51:04.025Z,100.00
2023-05-07T22:53:31.650Z,100.00
2023-05-07T22:55:59.446Z,100.00
2023-05-07T22:58:27.117Z,100.00
2023-05-07T23:00:54.664Z,100.00
2023-05-07T23:03:22.362Z,100.00
2023-05-07T23:05:51.377Z,100.00
2023-05-07T23:08:18.958Z,100.00
2023-05-07T23:10:46.536Z,100.00
2023-05-07T23:13:17.066Z,100.00
2023-05-07T23:15:45.207Z,100.00
2023-05-07T23:18:12.878Z,100.00
2023-05-07T23:20:41.090Z,100.00
2023-05-07T23:23:09.964Z,100.00
2023-05-07T23:25:37.538Z,100.00
2023-05-07T23:28:05.520Z,100.00
2023-05-07T23:30:33.150Z,100.00
2023-05-07T23:33:00.757Z,100.00
2023-05-07T23:35:28.498Z,100.00
2023-05-07T23:37:56.111Z,100.00
2023-05-07T23:40:25.248Z,100.00
2023-05-07T23:42:52.839Z,100.00
2023-05-07T23:45:20.433Z,100.00
2023-05-07T23:47:48.117Z,100.00
2023-05-07T23:50:15.937Z,100.00
2023-05-07T23:52:43.546Z,100.00
2023-05-07T23:55:11.520Z,100.00
2023-05-07T23:57:40.398Z,100.00
